Hillcrest, Texas
Current Conditions -  °F | °C
As of 3:35 AM on Sunday 23 Nov 2014 (Local Time) from K66R Reporting Station
Overcast Overcast  
Wind Chill: 59°   Ceiling: 1000
Heat Index: 59°   Visibility: 10mi
Dew Point: 59°   Wind: 6mph
Humidity: 100%   Direction: 270°W
Pressure: 29.68"   Gusts: NA
Location:  29.6691°N, 96.5485°W
Report Text: K66R 230935Z AUTO 27005KT 10SM OVC010 15/15 A2968 RMK AO2 T01500150
Loading
Personal Weather Stations






























Interactive Weather Map New forecast layout! Learn more

10-Day Weather Forecast

Advertisements
Track Severe Weather on mobile